• Join FlightAware (Why Join?)
  • Login
  • US Flag 
11:59PM EDT


 

Airport Tracker/Info


-or-


 

Live Flight TrackerFlight Track Log ✈ GJS3706 ✈ 09-Jul-2013 ✈ KTUL - KDEN

Flight Track Log - Related Links

Times and Time Zones

All times are in EDT time to prevent confusion due to time zone crossing. See the GJS3706 flight status page for this flight to view local times or setup timezone preferences in your user account.

Time Position Orientation Groundspeed Altitude Reporting Facility
EDT Latitude Longitude Course Direction KTS MPH feet Rate Location/Type
09:30PM 36.1553 -95.8867 182° South 162 186 2,500  Level Kansas City Center
09:31PM 36.1425 -95.9244 247° West 199 229 3,600 1,920 Climbing Kansas City Center
09:32PM 36.1719 -96.0003 296° West 240 276 5,800 2,280 Climbing Kansas City Center
09:33PM 36.2114 -96.0797 302° West 259 298 8,300 2,040 Climbing Kansas City Center
09:34PM 36.2544 -96.1650 302° West 280 322 10,100 1,620 Climbing Kansas City Center
09:35PM 36.3028 -96.2597 302° West 310 357 11,700 1,500 Climbing Kansas City Center
09:36PM 36.3544 -96.3653 301° West 342 394 13,200 1,380 Climbing Kansas City Center
09:37PM 36.4103 -96.4747 302° West 367 422 14,600 1,440 Climbing Kansas City Center
09:38PM 36.4675 -96.5903 302° West 382 440 16,200 1,560 Climbing Kansas City Center
09:39PM 36.5247 -96.7072 301° West 392 451 17,900 1,560 Climbing Kansas City Center
09:40PM 36.5836 -96.8261 302° West 395 455 19,500 1,620 Climbing Kansas City Center
09:41PM 36.6531 -96.9661 302° West 399 459 21,300 1,560 Climbing Kansas City Center
09:42PM 36.7114 -97.0856 301° West 402 463 22,700 1,320 Climbing Kansas City Center
09:43PM 36.7661 -97.2075 299° West 403 464 24,100 1,320 Climbing Kansas City Center
09:44PM 36.8100 -97.3356 293° West 402 463 25,500 1,260 Climbing Kansas City Center
09:45PM 36.8553 -97.4683 293° West 406 467 26,700 1,020 Climbing Kansas City Center
09:46PM 36.9003 -97.6008 293° West 409 471 27,700 960 Climbing Kansas City Center
09:47PM 36.9467 -97.7369 293° West 416 479 28,700 840 Climbing Kansas City Center
09:48PM 36.9922 -97.8722 293° West 418 481 29,500 720 Climbing Kansas City Center
09:49PM 37.0394 -98.0083 294° West 421 484 30,200 660 Climbing Kansas City Center
09:50PM 37.0872 -98.1492 293° West 430 495 30,900 720 Climbing Kansas City Center
09:51PM 37.1344 -98.2922 293° West 436 502 31,700 660 Climbing Kansas City Center
09:52PM 37.1828 -98.4342 293° West 438 504 32,300 540 Climbing Kansas City Center
09:53PM 37.2294 -98.5775 292° West 440 506 32,900 600 Climbing Kansas City Center
09:54PM 37.2764 -98.7178 293° West 437 503 33,600 720 Climbing Kansas City Center
09:55PM 37.3322 -98.8889 292° West 438 504 34,400 600 Climbing Kansas City Center
09:56PM 37.3781 -99.0317 292° West 435 501 34,900 480 Climbing Kansas City Center
09:57PM 37.4219 -99.1697 292° West 431 496 35,400 480 Climbing Kansas City Center
09:58PM 37.4656 -99.3064 292° West 435 501 35,900 600 Climbing Kansas City Center
09:59PM 37.5156 -99.4656 292° West 439 505 36,700 780 Climbing Kansas City Center
10:00PM 37.5611 -99.5972 294° West 432 497 37,500 600 Climbing Kansas City Center
10:01PM 37.6117 -99.7519 292° West 429 494 38,000 240 Climbing Kansas City Center
10:02PM 37.6550 -99.8886 292° West 435 501 38,000  Level Kansas City Center
10:03PM 37.7000 -100.0267 292° West 443 510 38,000  Level Kansas City Center
10:04PM 37.7525 -100.1886 292° West 447 514 38,000  Level Kansas City Center
10:05PM 37.7950 -100.3225 292° West 436 502 38,000  Level Kansas City Center
10:06PM 37.8453 -100.4792 292° West 434 499 38,000  Level Kansas City Center
10:08PM 37.8886 -100.6150 292° West 435 501 38,000  Level Kansas City Center
10:09PM 37.9389 -100.7722 292° West 435 501 38,000  Level Kansas City Center
10:10PM 37.9881 -100.9000 296° West 427 491 38,000  Level Kansas City Center
10:11PM 38.0383 -101.0311 296° West 431 496 38,000  Level Kansas City Center
10:12PM 38.0969 -101.1850 296° West 435 501 38,000  Level Kansas City Center
10:13PM 38.1458 -101.3164 295° West 432 497 38,000  Level Kansas City Center
10:14PM 38.2056 -101.4694 296° West 434 499 38,000  Level Kansas City Center
10:15PM 38.2689 -101.5936 303° West 437 503 38,000  Level Kansas City Center
10:16PM 38.3286 -101.7178 302° West 432 497 38,000 -360 Level Kansas City Center
10:17PM 38.4003 -101.8633 302° West 434 499 37,300 -900 Descending Kansas City Center
10:18PM 38.4858 -102.0294 303° West 441 507 36,000 -600 Descending Denver Center
10:19PM 38.5481 -102.1556 302° West 440 506 36,000  Level Denver Center
10:20PM 38.6175 -102.2989 302° West 427 491 36,000  Level Denver Center
10:21PM 38.6778 -102.4217 302° West 425 489 36,000 -360 Level Denver Center
10:22PM 38.7475 -102.5667 302° West 429 494 35,300 -780 Descending Denver Center
10:23PM 38.8100 -102.6956 302° West 442 509 34,500 -720 Descending Denver Center
10:24PM 38.8711 -102.8200 302° West 447 514 33,900 -840 Descending Denver Center
10:25PM 38.9472 -102.9794 302° West 437 503 32,800 -1,620 Descending Denver Center
10:26PM 39.0106 -103.1139 301° West 439 505 30,600 -2,160 Descending Denver Center
10:27PM 39.0756 -103.2489 302° West 443 510 28,400 -2,160 Descending Denver Center
10:28PM 39.1372 -103.3822 301° West 434 499 26,200 -2,160 Descending Denver Center
10:29PM 39.1975 -103.5089 302° West 420 483 24,000 -2,160 Descending Denver Center
10:30PM 39.2553 -103.6311 301° West 404 465 21,800 -2,160 Descending Denver Center
10:31PM 39.3106 -103.7517 301° West 392 451 19,600 -2,100 Descending Denver Center
10:32PM 39.3644 -103.8664 301° West 378 435 17,600 -1,800 Descending Denver Center
10:33PM 39.4247 -103.9872 303° West 353 406 16,000 -1,620 Descending Denver Center
10:34PM 39.4808 -104.0789 308° West 305 351 14,400 -1,500 Descending Denver Center
10:35PM 39.5408 -104.1556 315° West 304 350 13,000 -720 Descending Denver Center
10:36PM 39.6183 -104.1797 346° North 258 297 13,000 -300 Level Denver Center
10:37PM 39.6889 -104.2006 347° North 259 298 12,400 -900 Descending Denver Center
10:39PM 39.7589 -104.2214 347° North 258 297 11,200 -1,080 Descending Denver Center
10:40PM 39.8258 -104.2372 350° North 230 265 10,300 -1,080 Descending Denver Center
10:41PM 39.8681 -104.2872 318° Northwest 215 247 9,100 -720 Descending Denver Center
10:42PM 39.8758 -104.3672 277° West 221 254 8,900 -780 Descending Denver Center
10:43PM 39.8753 -104.4553 270° West 227 261 7,600 -1,140 Descending Denver Center
10:44PM 39.8764 -104.5231 271° West 190 219 6,600 -840 Descending Denver Center
10:45PM 39.8767 -104.5758 270° West 148 170 5,900 -660 Descending Denver Center
10:46PM 39.8772 -104.6331 271° West 148 170 5,300 -600 Descending Denver Center
10:48PM 39.8500 -104.6667 201° Southwest  Level FlightAware Approximate
10:55PM 39.8617 -104.6732 201° Southwest  Level Estimated
10:56PM 39.8617 -104.6732 201° Southwest  Level Estimated
10:57PM 39.8617 -104.6732 201° Southwest  Level Estimated